Time,TemperatureF,DewpointF,PressureIn,WindDirection,WindDirectionDegrees,WindSpeedMPH,WindSpeedGustMPH,Humidity,HourlyPrecipIn,Conditions,Clouds,dailyrainin,SoftwareType,DateUTC
2013-05-22 00:12:00,61.0,56.0,-100.00,NNE,20,2.0,2.0,83,0.00,,,-99.99,,2013-05-22 05:12:00,
2013-05-22 00:21:00,61.0,56.0,-100.00,NNE,20,2.0,2.0,83,0.00,,,-99.99,,2013-05-22 05:21:00,
2013-05-22 00:32:00,61.0,56.0,-100.00,NNE,20,2.0,2.0,83,0.00,,,-99.99,,2013-05-22 05:32:00,
2013-05-22 00:42:00,61.0,56.0,-100.00,NNE,20,2.0,2.0,83,0.00,,,-99.99,,2013-05-22 05:42:00,
2013-05-22 01:12:00,60.0,56.0,-100.00,NNE,20,0.0,1.0,86,0.00,,,-99.99,,2013-05-22 06:12:00,
2013-05-22 01:21:00,60.0,56.0,-100.00,NNE,20,0.0,1.0,86,0.00,,,-99.99,,2013-05-22 06:21:00,
2013-05-22 01:32:00,60.0,56.0,-100.00,NNE,20,0.0,1.0,86,0.00,,,-99.99,,2013-05-22 06:32:00,
2013-05-22 01:42:00,60.0,56.0,-100.00,NNE,20,0.0,1.0,86,0.00,,,-99.99,,2013-05-22 06:42:00,
2013-05-22 02:11:00,58.0,55.0,-100.00,NW,305,0.0,1.0,89,0.00,,,-99.99,,2013-05-22 07:11:00,
2013-05-22 02:21:00,58.0,55.0,-100.00,NW,305,0.0,1.0,89,0.00,,,-99.99,,2013-05-22 07:21:00,
2013-05-22 02:32:00,58.0,55.0,-100.00,NW,305,0.0,1.0,89,0.00,,,-99.99,,2013-05-22 07:32:00,
2013-05-22 02:42:00,58.0,55.0,-100.00,NW,305,0.0,1.0,89,0.00,,,-99.99,,2013-05-22 07:42:00,
2013-05-22 03:11:00,57.0,54.0,-100.00,ENE,70,2.0,2.0,90,0.00,,,-99.99,,2013-05-22 08:11:00,
2013-05-22 03:22:00,57.0,54.0,-100.00,ENE,70,2.0,2.0,90,0.00,,,-99.99,,2013-05-22 08:22:00,
2013-05-22 03:32:00,57.0,54.0,-100.00,ENE,70,2.0,2.0,90,0.00,,,-99.99,,2013-05-22 08:32:00,
2013-05-22 03:42:00,57.0,54.0,-100.00,ENE,70,2.0,2.0,90,0.00,,,-99.99,,2013-05-22 08:42:00,
2013-05-22 04:12:00,56.0,53.0,-100.00,ENE,70,2.0,4.0,90,0.00,,,-99.99,,2013-05-22 09:12:00,
2013-05-22 04:22:00,56.0,53.0,-100.00,ENE,70,2.0,4.0,90,0.00,,,-99.99,,2013-05-22 09:22:00,
2013-05-22 04:33:00,56.0,53.0,-100.00,ENE,70,2.0,4.0,90,0.00,,,-99.99,,2013-05-22 09:33:00,
2013-05-22 04:42:00,56.0,53.0,-100.00,ENE,70,2.0,4.0,90,0.00,,,-99.99,,2013-05-22 09:42:00,
2013-05-22 05:12:00,54.0,52.0,-100.00,NE,40,0.0,1.0,91,0.00,,,-99.99,,2013-05-22 10:12:00,
2013-05-22 05:23:00,54.0,52.0,-100.00,NE,40,0.0,1.0,91,0.00,,,-99.99,,2013-05-22 10:23:00,
2013-05-22 05:33:00,54.0,52.0,-100.00,NE,40,0.0,1.0,91,0.00,,,-99.99,,2013-05-22 10:33:00,
2013-05-22 05:42:00,54.0,52.0,-100.00,NE,40,0.0,1.0,91,0.00,,,-99.99,,2013-05-22 10:42:00,
2013-05-22 06:02:00,55.0,52.0,-100.00,NNE,25,1.0,3.0,91,0.00,,,-99.99,,2013-05-22 11:02:00,
2013-05-22 06:11:00,55.0,52.0,-100.00,NNE,25,1.0,3.0,91,0.00,,,-99.99,,2013-05-22 11:11:00,
2013-05-22 06:22:00,55.0,52.0,-100.00,NNE,25,1.0,3.0,91,0.00,,,-99.99,,2013-05-22 11:22:00,
2013-05-22 06:32:00,55.0,52.0,-100.00,NNE,25,1.0,3.0,91,0.00,,,-99.99,,2013-05-22 11:32:00,
2013-05-22 06:41:00,55.0,52.0,-100.00,NNE,25,1.0,3.0,91,0.00,,,-99.99,,2013-05-22 11:41:00,
2013-05-22 07:12:00,58.0,55.0,-100.00,NNE,30,2.0,4.0,91,0.00,,,-99.99,,2013-05-22 12:12:00,
2013-05-22 07:22:00,58.0,55.0,-100.00,NNE,30,2.0,4.0,91,0.00,,,-99.99,,2013-05-22 12:22:00,
2013-05-22 07:32:00,58.0,55.0,-100.00,NNE,30,2.0,4.0,91,0.00,,,-99.99,,2013-05-22 12:32:00,
2013-05-22 07:42:00,58.0,55.0,-100.00,NNE,30,2.0,4.0,91,0.00,,,-99.99,,2013-05-22 12:42:00,
2013-05-22 08:12:00,59.0,56.0,-100.00,NE,35,3.0,4.0,91,0.00,,,-99.99,,2013-05-22 13:12:00,
2013-05-22 08:22:00,59.0,56.0,-100.00,NE,35,3.0,4.0,91,0.00,,,-99.99,,2013-05-22 13:22:00,
2013-05-22 08:32:00,59.0,56.0,-100.00,NE,35,3.0,4.0,91,0.00,,,-99.99,,2013-05-22 13:32:00,
2013-05-22 08:42:00,59.0,56.0,-100.00,NE,35,3.0,4.0,91,0.00,,,-99.99,,2013-05-22 13:42:00,
2013-05-22 09:11:00,63.0,58.0,-100.00,ENE,60,4.0,7.0,84,0.00,,,-99.99,,2013-05-22 14:11:00,
2013-05-22 09:21:00,63.0,58.0,-100.00,ENE,60,4.0,7.0,84,0.00,,,-99.99,,2013-05-22 14:21:00,
2013-05-22 09:32:00,63.0,58.0,-100.00,ENE,60,4.0,7.0,84,0.00,,,-99.99,,2013-05-22 14:32:00,
2013-05-22 09:42:00,63.0,58.0,-100.00,ENE,60,4.0,7.0,84,0.00,,,-99.99,,2013-05-22 14:42:00,
2013-05-22 10:11:00,64.0,58.0,-100.00,ENE,65,4.0,9.0,80,0.00,,,-99.99,,2013-05-22 15:11:00,
2013-05-22 10:22:00,64.0,58.0,-100.00,ENE,65,4.0,9.0,80,0.00,,,-99.99,,2013-05-22 15:22:00,
2013-05-22 10:32:00,64.0,58.0,-100.00,ENE,65,4.0,9.0,80,0.00,,,-99.99,,2013-05-22 15:32:00,
2013-05-22 10:42:00,64.0,58.0,-100.00,ENE,65,4.0,9.0,80,0.00,,,-99.99,,2013-05-22 15:42:00,
2013-05-22 11:12:00,63.0,59.0,-100.00,NE,50,7.0,14.0,87,0.00,,,-99.99,,2013-05-22 16:12:00,
2013-05-22 11:23:00,63.0,59.0,-100.00,NE,50,7.0,14.0,87,0.00,,,-99.99,,2013-05-22 16:23:00,
2013-05-22 11:32:00,63.0,59.0,-100.00,NE,50,7.0,14.0,87,0.00,,,-99.99,,2013-05-22 16:32:00,
2013-05-22 11:42:00,63.0,59.0,-100.00,NE,50,7.0,14.0,87,0.00,,,-99.99,,2013-05-22 16:42:00,
2013-05-22 12:11:00,63.0,60.0,-100.00,ENE,60,7.0,12.0,87,0.00,,,-99.99,,2013-05-22 17:11:00,
2013-05-22 12:23:00,63.0,60.0,-100.00,ENE,60,7.0,12.0,87,0.00,,,-99.99,,2013-05-22 17:23:00,
2013-05-22 12:33:00,63.0,60.0,-100.00,ENE,60,7.0,12.0,87,0.00,,,-99.99,,2013-05-22 17:33:00,
2013-05-22 12:42:00,63.0,60.0,-100.00,ENE,60,7.0,12.0,87,0.00,,,-99.99,,2013-05-22 17:42:00,
2013-05-22 13:14:00,61.0,58.0,-100.00,ENE,65,7.0,14.0,90,0.00,,,-99.99,,2013-05-22 18:14:00,
2013-05-22 13:22:00,61.0,58.0,-100.00,ENE,65,7.0,14.0,90,0.00,,,-99.99,,2013-05-22 18:22:00,
2013-05-22 13:33:00,61.0,58.0,-100.00,ENE,65,7.0,14.0,90,0.00,,,-99.99,,2013-05-22 18:33:00,
2013-05-22 13:42:00,61.0,58.0,-100.00,ENE,65,7.0,14.0,90,0.00,,,-99.99,,2013-05-22 18:42:00,
2013-05-22 14:11:00,60.0,58.0,-100.00,ENE,60,8.0,13.0,91,0.00,,,-99.99,,2013-05-22 19:11:00,
2013-05-22 14:21:00,60.0,58.0,-100.00,ENE,60,8.0,13.0,91,0.00,,,-99.99,,2013-05-22 19:21:00,
2013-05-22 14:32:00,60.0,58.0,-100.00,ENE,60,8.0,13.0,91,0.00,,,-99.99,,2013-05-22 19:32:00,
2013-05-22 14:42:00,60.0,58.0,-100.00,ENE,60,8.0,13.0,91,0.00,,,-99.99,,2013-05-22 19:42:00,
2013-05-22 15:11:00,60.0,57.0,-100.00,NNE,25,6.0,10.0,91,0.00,,,-99.99,,2013-05-22 20:11:00,
2013-05-22 15:22:00,60.0,57.0,-100.00,NNE,25,6.0,10.0,91,0.00,,,-99.99,,2013-05-22 20:22:00,
2013-05-22 15:32:00,60.0,57.0,-100.00,NNE,25,6.0,10.0,91,0.00,,,-99.99,,2013-05-22 20:32:00,
2013-05-22 15:42:00,60.0,57.0,-100.00,NNE,25,6.0,10.0,91,0.00,,,-99.99,,2013-05-22 20:42:00,
2013-05-22 16:11:00,59.0,56.0,-100.00,ENE,60,9.0,15.0,91,0.34,,,-99.99,,2013-05-22 21:11:00,
2013-05-22 16:21:00,59.0,56.0,-100.00,ENE,60,9.0,15.0,91,0.34,,,-99.99,,2013-05-22 21:21:00,
2013-05-22 16:32:00,59.0,56.0,-100.00,ENE,60,9.0,15.0,91,0.34,,,-99.99,,2013-05-22 21:32:00,
2013-05-22 16:42:00,59.0,56.0,-100.00,ENE,60,9.0,15.0,91,0.34,,,-99.99,,2013-05-22 21:42:00,
2013-05-22 17:13:00,58.0,55.0,-100.00,North,0,6.0,14.0,91,0.52,,,-99.99,,2013-05-22 22:13:00,
2013-05-22 17:22:00,58.0,55.0,-100.00,North,0,6.0,14.0,91,0.52,,,-99.99,,2013-05-22 22:22:00,
2013-05-22 17:33:00,58.0,55.0,-100.00,North,0,6.0,14.0,91,0.52,,,-99.99,,2013-05-22 22:33:00,
2013-05-22 17:42:00,58.0,55.0,-100.00,North,0,6.0,14.0,91,0.52,,,-99.99,,2013-05-22 22:42:00,
2013-05-22 18:12:00,57.0,54.0,-100.00,NE,35,7.0,14.0,91,1.18,,,-99.99,,2013-05-22 23:12:00,
2013-05-22 18:21:00,57.0,54.0,-100.00,NE,35,7.0,14.0,91,1.18,,,-99.99,,2013-05-22 23:21:00,
2013-05-22 18:32:00,57.0,54.0,-100.00,NE,35,7.0,14.0,91,1.18,,,-99.99,,2013-05-22 23:32:00,
2013-05-22 18:42:00,57.0,54.0,-100.00,NE,35,7.0,14.0,91,1.18,,,-99.99,,2013-05-22 23:42:00,
2013-05-22 19:11:00,57.0,54.0,-100.00,ENE,60,8.0,13.0,91,0.35,,,-99.99,,2013-05-23 00:11:00,
2013-05-22 19:22:00,57.0,54.0,-100.00,ENE,60,8.0,13.0,91,0.35,,,-99.99,,2013-05-23 00:22:00,
2013-05-22 19:32:00,57.0,54.0,-100.00,ENE,60,8.0,13.0,91,0.35,,,-99.99,,2013-05-23 00:32:00,
2013-05-22 19:42:00,57.0,54.0,-100.00,ENE,60,8.0,13.0,91,0.35,,,-99.99,,2013-05-23 00:42:00,
2013-05-22 20:11:00,56.0,54.0,-100.00,ENE,60,6.0,10.0,91,0.11,,,-99.99,,2013-05-23 01:11:00,
2013-05-22 20:22:00,56.0,54.0,-100.00,ENE,60,6.0,10.0,91,0.11,,,-99.99,,2013-05-23 01:22:00,
2013-05-22 20:32:00,56.0,54.0,-100.00,ENE,60,6.0,10.0,91,0.11,,,-99.99,,2013-05-23 01:32:00,
2013-05-22 20:42:00,56.0,54.0,-100.00,ENE,60,6.0,10.0,91,0.11,,,-99.99,,2013-05-23 01:42:00,
2013-05-22 21:11:00,56.0,53.0,-100.00,NE,35,9.0,19.0,91,0.00,,,-99.99,,2013-05-23 02:11:00,
2013-05-22 21:21:00,56.0,53.0,-100.00,NE,35,9.0,19.0,91,0.00,,,-99.99,,2013-05-23 02:21:00,
2013-05-22 21:32:00,56.0,53.0,-100.00,NE,35,9.0,19.0,91,0.00,,,-99.99,,2013-05-23 02:32:00,
2013-05-22 21:42:00,56.0,53.0,-100.00,NE,35,9.0,19.0,91,0.00,,,-99.99,,2013-05-23 02:42:00,
2013-05-22 22:11:00,54.0,52.0,-100.00,NNE,30,10.0,20.0,91,0.01,,,-99.99,,2013-05-23 03:11:00,
2013-05-22 22:21:00,54.0,52.0,-100.00,NNE,30,10.0,20.0,91,0.01,,,-99.99,,2013-05-23 03:21:00,
2013-05-22 22:33:00,54.0,52.0,-100.00,NNE,30,10.0,20.0,91,0.01,,,-99.99,,2013-05-23 03:33:00,
2013-05-22 22:43:00,54.0,52.0,-100.00,NNE,30,10.0,20.0,91,0.01,,,-99.99,,2013-05-23 03:43:00,
2013-05-22 23:12:00,53.0,50.0,-100.00,NNE,20,9.0,19.0,91,0.00,,,-99.99,,2013-05-23 04:12:00,
2013-05-22 23:22:00,53.0,50.0,-100.00,NNE,20,9.0,19.0,91,0.00,,,-99.99,,2013-05-23 04:22:00,
2013-05-22 23:33:00,53.0,50.0,-100.00,NNE,20,9.0,19.0,91,0.00,,,-99.99,,2013-05-23 04:33:00,
2013-05-22 23:42:00,53.0,50.0,-100.00,NNE,20,9.0,19.0,91,0.00,,,-99.99,,2013-05-23 04:42:00,